Time;durP1;ratioP1;P1;durP2;ratioP2;P2;SDS_P1;SDS_P2;PMS_P1;PMS_P2;Temp;Humidity;BMP_temperature;BMP_pressure;BME280_temperature;BME280_humidity;BME280_pressure;Samples;Min_cycle;Max_cycle;Signal;HPM_P1;HPM_P2
2021/03/20 00:00:34;;;;;;;2.80;0.93;;;-2.40;99.90;;;;;;4933790;28;20101;-78
2021/03/20 00:02:57;;;;;;;2.15;0.80;;;-2.30;99.90;;;;;;4932511;28;20108;-79
2021/03/20 00:05:21;;;;;;;3.05;1.30;;;-2.30;99.90;;;;;;4939180;28;20156;-78
2021/03/20 00:07:44;;;;;;;3.72;1.23;;;-2.30;99.90;;;;;;4933974;28;20105;-80
2021/03/20 00:10:11;;;;;;;2.17;0.82;;;-2.20;99.90;;;;;;4932691;28;20459;-79
2021/03/20 00:12:34;;;;;;;5.57;1.00;;;-2.30;99.90;;;;;;4940496;28;20098;-79
2021/03/20 00:14:56;;;;;;;3.72;0.90;;;-2.30;99.90;;;;;;4944892;28;20107;-80
2021/03/20 00:17:19;;;;;;;8.68;1.10;;;-2.20;99.90;;;;;;4942984;28;20092;-79
2021/03/20 00:19:42;;;;;;;2.90;0.70;;;-2.30;99.90;;;;;;4944258;28;20145;-79
2021/03/20 00:22:06;;;;;;;7.43;0.80;;;-2.40;99.90;;;;;;4944595;28;20591;-81
2021/03/20 00:24:30;;;;;;;4.68;0.98;;;-2.40;99.90;;;;;;4935822;28;20767;-80
2021/03/20 00:26:53;;;;;;;1.75;0.90;;;-2.40;99.90;;;;;;4943449;28;20527;-79
2021/03/20 00:29:16;;;;;;;8.10;0.80;;;-2.50;99.90;;;;;;4942689;28;20219;-78
2021/03/20 00:31:40;;;;;;;3.42;0.75;;;-2.60;99.90;;;;;;4935575;28;20123;-79
2021/03/20 00:34:03;;;;;;;5.72;0.65;;;-2.60;99.90;;;;;;4942980;28;20095;-81
2021/03/20 00:36:26;;;;;;;4.93;1.00;;;-2.60;99.90;;;;;;4944335;28;20468;-79
2021/03/20 00:38:50;;;;;;;3.90;0.73;;;-2.60;99.90;;;;;;4941062;28;20122;-78
2021/03/20 00:41:13;;;;;;;1.92;0.80;;;-2.60;99.90;;;;;;4943570;28;20094;-79
2021/03/20 00:43:36;;;;;;;2.65;0.70;;;-2.60;99.90;;;;;;4944600;28;20182;-80
2021/03/20 00:46:03;;;;;;;3.47;0.70;;;-2.70;99.90;;;;;;4942851;28;20111;-79
2021/03/20 00:48:30;;;;;;;2.42;0.70;;;-2.70;99.90;;;;;;4941110;28;20556;-80
2021/03/20 00:50:53;;;;;;;2.58;0.70;;;-2.80;99.90;;;;;;4934512;28;20549;-80
2021/03/20 00:53:17;;;;;;;3.97;0.90;;;-2.80;99.90;;;;;;4942847;28;20099;-79
2021/03/20 00:55:41;;;;;;;4.75;0.70;;;-2.90;99.90;;;;;;4946803;28;20132;-78
2021/03/20 00:58:19;;;;;;;5.07;1.17;;;-3.00;99.90;;;;;;4945741;28;20117;-79
2021/03/20 01:00:41;;;;;;;3.95;0.60;;;-3.10;99.90;;;;;;4938056;28;20096;-78
2021/03/20 01:03:04;;;;;;;4.43;1.02;;;-3.10;99.90;;;;;;4944832;28;20096;-79
2021/03/20 01:05:27;;;;;;;2.40;0.55;;;-3.20;99.90;;;;;;4948533;28;20558;-79
2021/03/20 01:07:50;;;;;;;1.67;0.80;;;-3.20;99.90;;;;;;4945949;28;20098;-79
2021/03/20 01:10:16;;;;;;;2.53;0.93;;;-3.30;99.90;;;;;;4947019;28;20466;-78
2021/03/20 01:12:40;;;;;;;4.88;1.00;;;-3.40;99.90;;;;;;4947401;28;20093;-81
2021/03/20 01:15:05;;;;;;;8.60;1.27;;;-3.40;99.90;;;;;;4947285;28;20647;-79
2021/03/20 01:17:28;;;;;;;5.18;0.90;;;-3.40;99.90;;;;;;4945414;27;20463;-78
2021/03/20 01:19:52;;;;;;;2.47;0.77;;;-3.40;99.90;;;;;;4947798;28;20192;-79
2021/03/20 01:22:15;;;;;;;4.68;0.75;;;-3.30;99.90;;;;;;4946908;28;20103;-78
2021/03/20 01:24:38;;;;;;;1.65;0.90;;;-3.30;99.90;;;;;;4946060;28;20089;-78
2021/03/20 01:27:01;;;;;;;4.40;1.02;;;-3.30;99.90;;;;;;4944250;28;20615;-78
2021/03/20 01:29:26;;;;;;;1.15;0.60;;;-3.30;99.90;;;;;;4947551;28;20125;-78
2021/03/20 01:31:51;;;;;;;2.35;1.40;;;-3.30;99.90;;;;;;4946400;28;20562;-78
2021/03/20 01:34:13;;;;;;;2.10;0.88;;;-3.80;99.90;;;;;;4944979;28;20101;-79
2021/03/20 01:36:36;;;;;;;4.47;0.80;;;-3.30;99.90;;;;;;4943806;28;20100;-79
2021/03/20 01:38:59;;;;;;;3.58;0.57;;;-3.30;99.90;;;;;;4946094;28;20120;-79
2021/03/20 01:41:24;;;;;;;1.38;0.70;;;-3.40;99.90;;;;;;4945477;28;20747;-79
2021/03/20 01:43:47;;;;;;;3.80;1.00;;;-3.50;99.90;;;;;;4947461;28;20611;-78
2021/03/20 01:46:41;;;;;;;1.58;0.73;;;-3.50;99.90;;;;;;4943255;28;20085;-78
2021/03/20 01:49:17;;;;;;;2.65;0.80;;;-3.60;99.90;;;;;;4942431;28;20654;-78
2021/03/20 01:51:40;;;;;;;2.13;0.95;;;-3.60;99.90;;;;;;4944175;28;20543;-78
2021/03/20 01:54:03;;;;;;;1.75;0.90;;;-3.50;99.90;;;;;;4946967;28;20135;-78
2021/03/20 01:56:36;;;;;;;2.88;0.68;;;-3.40;99.90;;;;;;4945241;28;20093;-77
2021/03/20 01:58:59;;;;;;;1.95;1.17;;;-3.40;99.90;;;;;;4945814;28;20097;-78
2021/03/20 02:01:25;;;;;;;4.40;0.90;;;-3.40;99.90;;;;;;4944943;28;20093;-79
2021/03/20 02:03:50;;;;;;;6.22;0.98;;;-3.40;99.90;;;;;;4945366;28;20104;-79
2021/03/20 02:06:13;;;;;;;8.00;1.40;;;-3.40;99.90;;;;;;4943899;28;20570;-78
2021/03/20 02:08:38;;;;;;;5.90;1.00;;;-3.30;99.90;;;;;;4944197;28;20101;-78
2021/03/20 02:11:12;;;;;;;2.22;0.77;;;-3.20;99.90;;;;;;4942713;28;20097;-79
2021/03/20 02:13:41;;;;;;;2.40;0.80;;;-3.20;99.90;;;;;;4943996;28;20416;-79
2021/03/20 02:16:11;;;;;;;5.40;0.93;;;-3.10;99.90;;;;;;4934874;28;20519;-79
2021/03/20 02:18:43;;;;;;;2.80;0.95;;;-3.00;99.90;;;;;;4946480;28;20115;-79
2021/03/20 02:21:22;;;;;;;6.03;0.93;;;-3.00;99.90;;;;;;4945182;28;20434;-79
2021/03/20 02:24:27;;;;;;;6.35;1.08;;;-3.00;99.90;;;;;;4944321;28;20088;-78
2021/03/20 02:27:21;;;;;;;3.03;1.10;;;-2.80;99.90;;;;;;4940418;28;20544;-78
2021/03/20 02:30:19;;;;;;;7.40;1.23;;;-2.70;99.90;;;;;;4935768;27;20464;-79
2021/03/20 02:33:07;;;;;;;8.18;0.98;;;-2.70;99.90;;;;;;4943283;27;20089;-78
2021/03/20 02:35:35;;;;;;;2.92;0.93;;;-2.70;99.90;;;;;;4929762;28;20116;-79
2021/03/20 02:38:07;;;;;;;2.55;1.30;;;-2.70;99.90;;;;;;4939776;28;20531;-80
2021/03/20 02:40:39;;;;;;;5.63;1.30;;;-2.60;99.90;;;;;;4940320;28;20838;-79
2021/03/20 02:43:06;;;;;;;8.27;1.58;;;-2.60;99.90;;;;;;4941864;27;20176;-78
2021/03/20 02:45:35;;;;;;;2.08;1.08;;;-2.50;99.90;;;;;;4941845;28;20538;-79
2021/03/20 02:48:07;;;;;;;4.40;1.67;;;-2.50;99.90;;;;;;4941591;28;20107;-78
2021/03/20 02:50:38;;;;;;;5.32;1.60;;;-2.40;99.90;;;;;;4943003;28;20085;-79
2021/03/20 02:53:06;;;;;;;6.47;1.20;;;-2.40;99.90;;;;;;4939027;28;20122;-79
2021/03/20 02:55:36;;;;;;;3.88;1.15;;;-2.40;99.90;;;;;;4944124;28;20603;-79
2021/03/20 02:58:04;;;;;;;3.67;1.20;;;-2.30;99.90;;;;;;4942912;28;20111;-80
2021/03/20 03:00:32;;;;;;;10.65;2.22;;;-2.30;99.90;;;;;;4946647;28;20099;-79
2021/03/20 03:02:58;;;;;;;9.52;1.63;;;-2.30;99.90;;;;;;4944961;28;20148;-79
2021/03/20 03:05:26;;;;;;;4.68;1.73;;;-2.20;99.90;;;;;;4944801;28;20162;-79
2021/03/20 03:07:53;;;;;;;5.70;1.40;;;-2.20;99.90;;;;;;4942297;27;20082;-78
2021/03/20 03:10:22;;;;;;;5.70;1.40;;;-2.20;99.90;;;;;;4945149;28;20149;-80
2021/03/20 03:12:49;;;;;;;5.10;1.40;;;-2.20;99.90;;;;;;4942780;28;20089;-79
2021/03/20 03:15:17;;;;;;;7.40;1.50;;;-2.10;99.90;;;;;;4945891;28;20140;-80
2021/03/20 03:17:51;;;;;;;4.93;1.50;;;-2.10;99.90;;;;;;4939094;28;20080;-80
2021/03/20 03:20:19;;;;;;;5.28;1.27;;;-2.00;99.90;;;;;;4940164;28;20099;-79
2021/03/20 03:22:49;;;;;;;2.13;1.30;;;-2.00;99.90;;;;;;4943009;28;20642;-80
2021/03/20 03:25:15;;;;;;;6.18;1.40;;;-2.10;99.90;;;;;;4943571;28;20593;-80
2021/03/20 03:27:42;;;;;;;4.78;1.42;;;-2.00;99.90;;;;;;4942758;28;20496;-80
2021/03/20 03:30:06;;;;;;;9.65;1.40;;;-2.00;99.90;;;;;;4944876;28;20471;-79
2021/03/20 03:32:36;;;;;;;5.18;1.55;;;-2.10;99.90;;;;;;4945514;28;20131;-80
2021/03/20 03:35:02;;;;;;;4.70;1.35;;;-2.10;99.90;;;;;;4944034;28;20578;-80
2021/03/20 03:37:33;;;;;;;2.55;1.20;;;-2.10;99.90;;;;;;4942834;28;20095;-79
2021/03/20 03:40:01;;;;;;;10.27;1.42;;;-2.10;99.90;;;;;;4945058;28;20091;-79
2021/03/20 03:42:25;;;;;;;10.65;1.50;;;-2.20;99.90;;;;;;4945442;28;20094;-80
2021/03/20 03:44:51;;;;;;;2.25;1.30;;;-2.20;99.90;;;;;;4941742;28;20097;-78
2021/03/20 03:47:17;;;;;;;7.50;1.63;;;-2.20;99.90;;;;;;4942819;28;20101;-80
2021/03/20 03:49:40;;;;;;;7.70;1.30;;;-2.20;99.90;;;;;;4943930;27;20086;-80
2021/03/20 03:52:04;;;;;;;3.45;1.38;;;-2.30;99.90;;;;;;4943864;28;20109;-79
2021/03/20 03:54:28;;;;;;;3.33;1.35;;;-2.30;99.90;;;;;;4945064;28;20105;-79
2021/03/20 03:57:27;;;;;;;2.53;1.25;;;-2.40;99.90;;;;;;4943505;28;20147;-79
2021/03/20 04:00:04;;;;;;;6.13;1.50;;;-2.40;99.90;;;;;;4938996;28;20499;-78
2021/03/20 04:02:48;;;;;;;3.92;1.58;;;-2.50;99.90;;;;;;4940863;28;25204;-79
2021/03/20 04:05:16;;;;;;;3.60;1.40;;;-2.50;99.90;;;;;;4938985;28;20174;-79
2021/03/20 04:07:52;;;;;;;11.10;2.17;;;-2.50;99.90;;;;;;4941399;28;20095;-80
2021/03/20 04:10:24;;;;;;;3.25;1.50;;;-2.50;99.90;;;;;;4939284;28;20093;-79
2021/03/20 04:12:57;;;;;;;5.13;1.50;;;-2.40;99.90;;;;;;4940064;28;20107;-79
2021/03/20 04:15:32;;;;;;;7.00;1.60;;;-2.40;99.90;;;;;;4941331;28;20101;-79
2021/03/20 04:18:04;;;;;;;5.43;1.38;;;-2.40;99.90;;;;;;4940812;28;20101;-80
2021/03/20 04:20:36;;;;;;;3.22;1.48;;;-2.30;99.90;;;;;;4944043;28;20105;-79
2021/03/20 04:23:02;;;;;;;3.58;1.27;;;-2.30;99.90;;;;;;4942683;28;20098;-80
2021/03/20 04:25:32;;;;;;;8.50;1.48;;;-2.20;99.90;;;;;;4934445;28;20126;-79
2021/03/20 04:28:07;;;;;;;5.00;1.52;;;-2.20;99.90;;;;;;4945283;28;20651;-80
2021/03/20 04:30:34;;;;;;;4.22;1.20;;;-2.20;99.90;;;;;;4947375;28;20096;-80
2021/03/20 04:33:04;;;;;;;4.70;1.40;;;-2.10;99.90;;;;;;4947904;28;20164;-79
2021/03/20 04:35:32;;;;;;;4.35;1.60;;;-2.10;99.90;;;;;;4938619;28;20133;-79
2021/03/20 04:37:57;;;;;;;4.22;1.42;;;-2.00;99.90;;;;;;4946239;28;20084;-79
2021/03/20 04:40:30;;;;;;;3.08;1.25;;;-2.00;99.90;;;;;;4937968;28;20096;-79
2021/03/20 04:42:56;;;;;;;11.60;1.50;;;-1.90;99.90;;;;;;4946456;28;20166;-79
2021/03/20 04:45:29;;;;;;;4.05;1.30;;;-1.90;99.90;;;;;;4948884;28;20092;-79
2021/03/20 04:47:57;;;;;;;6.28;1.50;;;-1.90;99.90;;;;;;4944406;27;20468;-79
2021/03/20 04:50:24;;;;;;;4.32;1.10;;;-1.90;99.90;;;;;;4947002;28;20086;-80
2021/03/20 04:52:50;;;;;;;3.80;1.23;;;-1.90;99.90;;;;;;4947283;28;20117;-79
2021/03/20 04:55:14;;;;;;;5.95;1.40;;;-1.90;99.90;;;;;;4933479;28;20116;-79
2021/03/20 04:57:44;;;;;;;4.82;1.25;;;-1.80;99.90;;;;;;4946199;28;20087;-80
2021/03/20 05:00:14;;;;;;;7.50;1.00;;;-1.80;99.90;;;;;;4947256;28;20092;-81
2021/03/20 05:02:45;;;;;;;4.93;1.17;;;-1.80;99.90;;;;;;4944946;28;20711;-81
2021/03/20 05:05:18;;;;;;;4.93;1.27;;;-1.70;99.90;;;;;;4947585;28;20112;-79
2021/03/20 05:07:41;;;;;;;2.58;0.95;;;-1.80;99.90;;;;;;4942839;28;20103;-80
2021/03/20 05:10:15;;;;;;;2.38;1.08;;;-1.80;99.90;;;;;;4944635;27;20109;-79
2021/03/20 05:12:41;;;;;;;8.25;1.65;;;-1.80;99.90;;;;;;4945645;28;20125;-79
2021/03/20 05:15:22;;;;;;;9.00;1.20;;;-1.80;99.90;;;;;;4946842;28;20184;-81
2021/03/20 05:17:45;;;;;;;11.10;1.60;;;-1.90;99.90;;;;;;4943875;28;20088;-79
2021/03/20 05:20:09;;;;;;;1.17;0.75;;;-1.80;99.90;;;;;;4944423;28;20173;-80
2021/03/20 05:22:33;;;;;;;3.07;1.43;;;-1.90;99.90;;;;;;4945537;28;20098;-80
2021/03/20 05:25:04;;;;;;;6.28;1.40;;;-1.80;99.90;;;;;;4946772;28;20090;-79
2021/03/20 05:27:30;;;;;;;1.83;1.05;;;-1.80;99.90;;;;;;4946435;27;20463;-81
2021/03/20 05:29:53;;;;;;;2.92;0.95;;;-1.70;99.90;;;;;;4945531;28;20131;-81
2021/03/20 05:32:23;;;;;;;3.72;1.17;;;-1.70;99.90;;;;;;4947836;28;20187;-81
2021/03/20 05:34:47;;;;;;;2.85;1.15;;;-1.70;99.90;;;;;;4947928;28;20096;-81
2021/03/20 05:37:20;;;;;;;7.25;1.02;;;-1.70;99.90;;;;;;4945031;28;20456;-80
2021/03/20 05:39:43;;;;;;;3.05;1.02;;;-1.60;99.90;;;;;;4946274;28;20104;-80
2021/03/20 05:42:25;;;;;;;2.70;0.98;;;-1.60;99.90;;;;;;4946610;28;20135;-81
2021/03/20 05:45:00;;;;;;;8.27;0.98;;;-1.60;99.90;;;;;;4945071;27;20596;-81
2021/03/20 05:47:38;;;;;;;9.90;1.47;;;-1.50;99.90;;;;;;4945100;28;20115;-80
2021/03/20 05:50:12;;;;;;;2.80;0.88;;;-1.40;99.90;;;;;;4940577;28;20119;-81
2021/03/20 05:53:10;;;;;;;6.75;1.00;;;-1.40;99.90;;;;;;4945203;28;20543;-80
2021/03/20 05:55:42;;;;;;;2.67;1.13;;;-1.30;99.90;;;;;;4931467;28;20170;-79
2021/03/20 05:58:23;;;;;;;3.92;1.25;;;-1.30;99.90;;;;;;4946792;28;20096;-81
2021/03/20 06:00:52;;;;;;;1.83;0.80;;;-1.30;99.90;;;;;;4941768;28;20098;-82
2021/03/20 06:03:34;;;;;;;6.15;1.45;;;-1.20;99.90;;;;;;4943170;28;20091;-81
2021/03/20 06:06:03;;;;;;;4.38;1.35;;;-1.20;99.90;;;;;;4946226;27;20086;-80
2021/03/20 06:08:52;;;;;;;4.40;1.00;;;-1.10;99.90;;;;;;4945894;28;20171;-80
2021/03/20 06:11:39;;;;;;;4.38;0.98;;;-1.10;99.90;;;;;;4933521;27;20094;-81
2021/03/20 06:14:30;;;;;;;6.03;1.33;;;-1.10;99.90;;;;;;4943125;27;20094;-81
2021/03/20 06:17:12;;;;;;;7.05;1.48;;;-0.90;99.90;;;;;;4945774;28;20086;-80
2021/03/20 06:19:59;;;;;;;4.85;1.35;;;-0.80;99.90;;;;;;4935000;27;20580;-81
2021/03/20 06:22:40;;;;;;;6.90;1.35;;;-0.50;99.90;;;;;;4942851;28;20431;-81
2021/03/20 06:25:47;;;;;;;5.18;1.10;;;-0.30;99.90;;;;;;4942681;28;20090;-80
2021/03/20 06:28:11;;;;;;;4.88;1.30;;;-0.20;99.90;;;;;;4936990;28;20537;-82
2021/03/20 06:30:41;;;;;;;3.80;1.03;;;-0.20;99.90;;;;;;4945580;28;20170;-80
2021/03/20 06:33:18;;;;;;;3.88;1.15;;;0.00;99.90;;;;;;4944683;28;20589;-82
2021/03/20 06:35:47;;;;;;;4.05;1.15;;;0.20;99.90;;;;;;4935441;27;20079;-82
2021/03/20 06:38:23;;;;;;;2.22;0.80;;;0.40;99.90;;;;;;4947237;27;20796;-80
2021/03/20 06:40:53;;;;;;;2.28;0.98;;;0.50;99.90;;;;;;4938178;27;20107;-82
2021/03/20 06:43:20;;;;;;;4.30;1.27;;;0.60;99.90;;;;;;4943735;28;20082;-82
2021/03/20 06:45:45;;;;;;;2.15;1.02;;;0.70;99.90;;;;;;4944613;28;20139;-82
2021/03/20 06:48:11;;;;;;;;;;;0.70;99.90;;;;;;4945468;28;20079;-83
2021/03/20 06:50:39;;;;;;;2.75;1.23;;;0.80;99.90;;;;;;4940297;28;19968;-82
2021/03/20 06:53:07;;;;;;;2.33;0.98;;;1.00;99.90;;;;;;4944728;28;20139;-83
2021/03/20 06:55:32;;;;;;;3.80;1.00;;;1.10;99.90;;;;;;4944764;28;20078;-84
2021/03/20 06:57:57;;;;;;;3.03;0.90;;;1.30;99.90;;;;;;4945974;28;20177;-84
2021/03/20 07:00:24;;;;;;;3.07;1.30;;;1.50;99.90;;;;;;4944663;28;20094;-83
2021/03/20 07:03:02;;;;;;;1.83;0.82;;;1.70;99.90;;;;;;4943434;28;20522;-84
2021/03/20 07:05:36;;;;;;;2.92;1.00;;;1.80;99.90;;;;;;4944506;28;20086;-85
2021/03/20 07:08:21;;;;;;;1.75;0.93;;;2.00;99.90;;;;;;4941663;28;20118;-85
2021/03/20 07:10:50;;;;;;;4.80;0.80;;;1.90;99.90;;;;;;4943633;28;20172;-85
2021/03/20 07:13:21;;;;;;;2.78;1.33;;;1.80;99.90;;;;;;4946249;28;20165;-84
2021/03/20 07:15:45;;;;;;;2.95;1.00;;;1.80;99.90;;;;;;4939028;28;20088;-85
2021/03/20 07:18:25;;;;;;;2.75;1.17;;;1.70;99.90;;;;;;4945899;28;20086;-85
2021/03/20 07:20:49;;;;;;;3.33;1.20;;;1.60;99.90;;;;;;4945077;28;20078;-86
2021/03/20 07:23:16;;;;;;;3.50;1.10;;;1.50;99.90;;;;;;4947330;28;20529;-86
2021/03/20 07:25:44;;;;;;;3.88;1.05;;;1.50;99.90;;;;;;4942552;28;20158;-86
2021/03/20 07:28:11;;;;;;;4.50;1.00;;;1.30;99.90;;;;;;4945901;28;20541;-86
2021/03/20 07:30:40;;;;;;;6.38;1.60;;;1.20;99.90;;;;;;4943684;28;20086;-86
2021/03/20 07:33:29;;;;;;;3.15;1.02;;;1.00;99.90;;;;;;4940086;28;20078;-86
2021/03/20 07:35:55;;;;;;;3.00;0.93;;;1.00;99.90;;;;;;4933808;28;20456;-86
2021/03/20 07:38:25;;;;;;;5.30;1.23;;;0.90;99.90;;;;;;4933556;28;20106;-85
2021/03/20 07:40:49;;;;;;;2.85;1.08;;;1.10;99.90;;;;;;4927612;28;20087;-86
2021/03/20 07:43:16;;;;;;;7.55;1.23;;;1.20;99.90;;;;;;4946505;27;20827;-85
2021/03/20 07:45:39;;;;;;;1.85;0.90;;;;;;;;;;4938353;28;20117;-85
2021/03/20 07:48:23;;;;;;;7.10;1.30;;;1.30;99.90;;;;;;4947081;28;20094;-86
2021/03/20 07:50:47;;;;;;;2.05;0.82;;;1.40;99.90;;;;;;4943471;28;20088;-88
2021/03/20 07:53:16;;;;;;;4.45;1.42;;;1.50;99.90;;;;;;4945601;28;20106;-88
2021/03/20 07:56:07;;;;;;;9.45;1.30;;;1.70;99.90;;;;;;4942985;28;20082;-87
2021/03/20 07:58:40;;;;;;;6.82;1.08;;;1.90;99.90;;;;;;4941483;28;20173;-88
2021/03/20 08:01:09;;;;;;;4.45;1.55;;;2.10;99.90;;;;;;4945873;28;20436;-85
2021/03/20 08:03:50;;;;;;;4.28;1.42;;;2.20;99.90;;;;;;4946897;28;20406;-88
2021/03/20 08:06:25;;;;;;;2.50;0.90;;;2.10;99.90;;;;;;4942130;28;20086;-87
2021/03/20 08:09:09;;;;;;;6.32;1.30;;;1.90;99.90;;;;;;4942634;28;20112;-88
2021/03/20 08:11:35;;;;;;;6.32;1.40;;;2.10;99.90;;;;;;4945864;28;20078;-88
2021/03/20 08:14:02;;;;;;;;;;;2.20;99.90;;;;;;4946800;28;20086;-85
2021/03/20 08:16:27;;;;;;;1.45;0.70;;;1.90;99.90;;;;;;4945576;28;19970;-84
2021/03/20 08:18:55;;;;;;;6.10;1.30;;;1.90;99.90;;;;;;4939009;28;20406;-87
2021/03/20 08:21:55;;;;;;;4.07;1.05;;;2.00;99.90;;;;;;4946031;28;20079;-84
2021/03/20 08:25:02;;;;;;;1.67;0.70;;;2.10;99.90;;;;;;4941795;28;20090;-85
2021/03/20 08:27:37;;;;;;;2.75;1.23;;;2.00;99.90;;;;;;4862679;28;20294;-85
2021/03/20 08:30:42;;;;;;;5.82;1.73;;;2.00;99.90;;;;;;4932599;28;20094;-84
2021/03/20 08:33:28;;;;;;;9.20;1.42;;;2.00;99.90;;;;;;4940950;28;20083;-84
2021/03/20 08:36:06;;;;;;;4.97;1.17;;;2.20;99.90;;;;;;4938159;28;20094;-85
2021/03/20 08:38:54;;;;;;;5.20;1.38;;;2.40;99.90;;;;;;4934826;28;20077;-85
2021/03/20 08:41:31;;;;;;;7.03;1.30;;;2.70;99.90;;;;;;4941158;28;20121;-83
2021/03/20 08:44:47;;;;;;;1.40;0.75;;;3.00;99.90;;;;;;4934624;27;20096;-83
2021/03/20 08:47:40;;;;;;;6.22;1.38;;;3.00;99.90;;;;;;4883351;28;20115;-83
2021/03/20 08:50:15;;;;;;;7.00;1.23;;;3.10;99.90;;;;;;4881740;28;20083;-82
2021/03/20 08:52:49;;;;;;;5.53;1.58;;;3.30;99.90;;;;;;4877888;28;20114;-84
2021/03/20 08:55:47;;;;;;;3.45;1.05;;;3.60;99.90;;;;;;4862662;28;20458;-82
2021/03/20 08:58:24;;;;;;;3.97;1.60;;;3.90;99.90;;;;;;4866104;28;20114;-83
2021/03/20 09:01:15;;;;;;;4.78;1.02;;;4.10;99.90;;;;;;4874318;28;20092;-84
2021/03/20 09:03:47;;;;;;;6.82;1.30;;;4.30;99.90;;;;;;4896249;28;20082;-83
2021/03/20 09:06:30;;;;;;;3.75;1.08;;;4.40;99.90;;;;;;4886923;27;20097;-82
2021/03/20 09:09:36;;;;;;;2.83;1.23;;;4.40;99.90;;;;;;4901110;28;20093;-84
2021/03/20 09:12:29;;;;;;;2.47;1.10;;;3.90;99.90;;;;;;4901201;28;20089;-83
2021/03/20 09:15:27;;;;;;;2.50;1.33;;;3.90;99.90;;;;;;4885459;28;20093;-83
2021/03/20 09:18:23;;;;;;;4.72;1.42;;;3.90;99.90;;;;;;4880527;27;20115;-82
2021/03/20 09:21:33;;;;;;;1.83;0.80;;;3.70;99.90;;;;;;4896199;27;20097;-83
2021/03/20 09:24:30;;;;;;;4.88;1.55;;;3.50;99.90;;;;;;4895287;27;24837;-83
2021/03/20 09:27:25;;;;;;;5.25;1.50;;;3.50;99.90;;;;;;4885720;27;20093;-81
2021/03/20 09:30:24;;;;;;;3.40;1.25;;;3.70;99.90;;;;;;4913137;28;20645;-82
2021/03/20 09:33:05;;;;;;;6.53;1.65;;;3.80;99.90;;;;;;4903256;27;20086;-81
2021/03/20 09:35:42;;;;;;;6.07;1.60;;;3.80;99.90;;;;;;4882967;27;20122;-83
2021/03/20 09:38:50;;;;;;;6.25;1.20;;;3.90;99.90;;;;;;4898498;27;20085;-82
2021/03/20 09:41:52;;;;;;;5.95;1.42;;;3.90;99.90;;;;;;4876248;27;20169;-83
2021/03/20 09:44:34;;;;;;;5.20;1.50;;;3.90;99.90;;;;;;4875040;27;20123;-82
2021/03/20 09:47:52;;;;;;;3.63;1.48;;;3.80;99.90;;;;;;4887714;27;20086;-81
2021/03/20 09:54:47;;;;;;;6.25;1.20;;;3.90;99.90;;;;;;4886655;27;20448;-82
2021/03/20 09:58:10;;;;;;;3.20;1.20;;;3.60;99.90;;;;;;4885348;27;20161;-83
2021/03/20 10:08:26;;;;;;;6.78;1.77;;;4.20;99.90;;;;;;4892193;27;20089;-84
2021/03/20 10:11:44;;;;;;;5.45;1.63;;;4.20;99.90;;;;;;4887339;27;20081;-84
2021/03/20 10:14:25;;;;;;;2.83;1.50;;;4.20;99.90;;;;;;4920585;27;20108;-85
2021/03/20 10:17:21;;;;;;;2.58;1.42;;;4.30;99.90;;;;;;4873256;27;20092;-84
2021/03/20 10:20:15;;;;;;;5.82;1.63;;;4.20;99.90;;;;;;4886497;27;20113;-85
2021/03/20 10:23:41;;;;;;;5.00;1.65;;;3.90;99.90;;;;;;4880104;27;20085;-82
2021/03/20 10:37:07;;;;;;;4.93;1.23;;;3.60;99.90;;;;;;4933677;27;20539;-86
2021/03/20 10:40:08;;;;;;;4.05;1.60;;;3.40;99.90;;;;;;4929933;27;20081;-85
2021/03/20 10:43:06;;;;;;;5.50;1.73;;;3.30;99.90;;;;;;4925328;27;20088;-85
2021/03/20 10:45:46;;;;;;;6.60;1.38;;;3.30;99.90;;;;;;4923351;27;20255;-86
2021/03/20 10:48:44;;;;;;;8.55;1.73;;;3.40;99.90;;;;;;4931511;27;20096;-86
2021/03/20 10:51:17;;;;;;;3.95;1.63;;;3.60;99.90;;;;;;4932083;27;20085;-85
2021/03/20 10:53:54;;;;;;;5.70;1.77;;;3.60;99.90;;;;;;4931770;27;20410;-87
2021/03/20 10:56:35;;;;;;;5.97;1.77;;;3.60;99.90;;;;;;4966859;27;20085;-87
2021/03/20 10:59:00;;;;;;;8.77;1.80;;;3.50;99.90;;;;;;4981030;27;20081;-85
2021/03/20 11:01:39;;;;;;;;;;;3.60;99.90;;;;;;4983544;27;20444;-85
2021/03/20 11:04:28;;;;;;;5.03;1.67;;;3.40;99.90;;;;;;4959290;27;19961;-86
2021/03/20 11:06:54;;;;;;;5.70;1.50;;;3.60;99.90;;;;;;4970653;27;20519;-88
2021/03/20 11:09:28;;;;;;;6.22;2.03;;;3.60;99.90;;;;;;4982752;27;20436;-90
2021/03/20 11:12:00;;;;;;;4.75;1.85;;;3.50;99.90;;;;;;4980079;27;20085;-82
2021/03/20 11:14:23;;;;;;;6.05;2.08;;;3.50;99.90;;;;;;4980212;27;20093;-79
2021/03/20 11:16:49;;;;;;;4.68;2.00;;;3.50;99.90;;;;;;4978956;27;20230;-79
2021/03/20 11:19:29;;;;;;;4.43;1.77;;;3.70;99.90;;;;;;4979933;27;20081;-85
2021/03/20 11:22:00;;;;;;;5.97;2.05;;;3.70;99.90;;;;;;4963137;27;20085;-82
2021/03/20 11:24:28;;;;;;;6.07;2.08;;;3.90;99.90;;;;;;4972711;27;20085;-83
2021/03/20 11:26:52;;;;;;;6.30;1.92;;;4.20;99.90;;;;;;4976972;27;20089;-82
2021/03/20 11:29:18;;;;;;;4.93;1.90;;;4.30;99.90;;;;;;4979585;27;20088;-83
2021/03/20 11:31:50;;;;;;;6.00;1.63;;;4.50;99.90;;;;;;4978517;27;20494;-84
2021/03/20 11:34:19;;;;;;;5.93;1.63;;;4.70;99.90;;;;;;4980735;27;20111;-80
2021/03/20 11:36:42;;;;;;;4.57;1.73;;;4.90;99.90;;;;;;4977633;27;20073;-81
2021/03/20 11:39:09;;;;;;;5.85;1.85;;;5.00;99.90;;;;;;4978047;27;20185;-81
2021/03/20 11:41:38;;;;;;;3.53;1.67;;;4.80;99.90;;;;;;4979888;27;20134;-82
2021/03/20 11:44:04;;;;;;;8.88;2.03;;;4.60;99.90;;;;;;4970118;27;20493;-81
2021/03/20 11:46:29;;;;;;;5.50;1.98;;;4.50;99.90;;;;;;4966765;27;20160;-82
2021/03/20 11:48:55;;;;;;;4.03;1.83;;;4.30;99.90;;;;;;4965869;27;20551;-81
2021/03/20 11:51:23;;;;;;;3.83;1.73;;;4.30;99.90;;;;;;4965810;27;20119;-81
2021/03/20 11:53:48;;;;;;;5.95;1.83;;;4.30;99.90;;;;;;4966605;27;20085;-82
2021/03/20 11:56:16;;;;;;;6.15;2.75;;;4.00;99.90;;;;;;4966258;27;20082;-81
2021/03/20 11:58:40;;;;;;;9.05;2.30;;;4.30;99.90;;;;;;4965979;27;20783;-83
2021/03/20 12:01:44;;;;;;;6.80;2.50;;;4.40;99.90;;;;;;4960344;27;20520;-82
2021/03/20 12:04:22;;;;;;;4.85;2.10;;;4.30;99.90;;;;;;4965456;27;20145;-81
2021/03/20 12:06:45;;;;;;;4.40;1.67;;;;;;;;;;4966353;27;20107;-81
2021/03/20 12:09:33;;;;;;;8.38;1.85;;;4.10;99.90;;;;;;4966952;27;20085;-82
2021/03/20 12:11:56;;;;;;;7.40;2.40;;;4.10;99.90;;;;;;4964143;27;20588;-82
2021/03/20 12:14:35;;;;;;;6.25;2.67;;;4.00;99.90;;;;;;4965207;27;20098;-80
2021/03/20 12:17:04;;;;;;;6.55;2.47;;;4.00;99.90;;;;;;4963746;27;20113;-82
2021/03/20 12:19:27;;;;;;;6.32;2.40;;;4.10;99.90;;;;;;4966857;27;20185;-82
2021/03/20 12:22:03;;;;;;;6.55;2.25;;;4.10;99.90;;;;;;4965616;27;20094;-81
2021/03/20 12:24:29;;;;;;;;;;;4.10;99.90;;;;;;4966005;27;20085;-81
2021/03/20 12:26:52;;;;;;;7.78;2.53;;;4.20;99.90;;;;;;4966806;27;20012;-81
2021/03/20 12:29:36;;;;;;;4.78;2.15;;;4.30;99.90;;;;;;4966626;27;20090;-78
2021/03/20 12:32:17;;;;;;;4.82;2.30;;;4.40;99.90;;;;;;4963578;27;20499;-81
2021/03/20 12:34:40;;;;;;;7.82;2.10;;;4.40;99.90;;;;;;4962857;27;20092;-80
2021/03/20 12:37:16;;;;;;;7.68;3.22;;;4.60;99.90;;;;;;4963883;27;20123;-80
2021/03/20 12:39:38;;;;;;;;;;;4.60;99.90;;;;;;4965866;27;20447;-81
2021/03/20 12:42:01;;;;;;;6.10;2.10;;;4.50;99.90;;;;;;4964268;27;20512;-81
2021/03/20 12:44:25;;;;;;;7.78;2.35;;;5.50;99.90;;;;;;4966164;27;20085;-79
2021/03/20 12:46:51;;;;;;;3.72;2.05;;;4.30;99.90;;;;;;4965335;27;20089;-81
2021/03/20 12:49:19;;;;;;;5.72;2.47;;;4.40;99.90;;;;;;4965988;27;20085;-82
2021/03/20 12:51:42;;;;;;;4.18;1.98;;;4.50;99.90;;;;;;4964848;27;20138;-81
2021/03/20 12:54:05;;;;;;;6.95;2.10;;;4.40;99.90;;;;;;4952615;27;20512;-81
2021/03/20 12:56:27;;;;;;;4.13;2.08;;;4.40;99.90;;;;;;4963088;27;20103;-79
2021/03/20 12:58:50;;;;;;;5.10;2.22;;;4.40;99.90;;;;;;4966414;27;20115;-80
2021/03/20 13:01:13;;;;;;;8.57;2.13;;;4.20;99.90;;;;;;4966622;27;20085;-79
2021/03/20 13:03:37;;;;;;;13.23;2.50;;;4.20;99.90;;;;;;4964563;27;20141;-81
2021/03/20 13:06:00;;;;;;;6.53;2.47;;;4.20;99.90;;;;;;4965424;27;20081;-81
2021/03/20 13:08:23;;;;;;;6.85;2.58;;;4.30;99.90;;;;;;4955048;27;20136;-80
2021/03/20 13:10:46;;;;;;;4.95;2.13;;;4.30;99.90;;;;;;4965817;27;20092;-78
2021/03/20 13:13:10;;;;;;;4.68;2.15;;;4.10;99.90;;;;;;4965346;27;20114;-81
2021/03/20 13:15:33;;;;;;;5.57;2.47;;;4.10;99.90;;;;;;4966409;27;20146;-82
2021/03/20 13:17:56;;;;;;;6.03;2.03;;;;;;;;;;4964413;27;20096;-82
2021/03/20 13:20:23;;;;;;;5.18;2.08;;;4.10;99.90;;;;;;4965272;27;20105;-81
2021/03/20 13:22:47;;;;;;;10.77;2.17;;;4.20;99.90;;;;;;4963038;27;20172;-81
2021/03/20 13:25:18;;;;;;;6.75;1.83;;;4.20;99.90;;;;;;4965690;27;20337;-81
2021/03/20 13:27:40;;;;;;;3.60;2.00;;;4.20;99.90;;;;;;4963644;27;20101;-81
2021/03/20 13:30:04;;;;;;;5.63;2.10;;;4.20;99.90;;;;;;4963946;27;20533;-79
2021/03/20 13:32:28;;;;;;;9.05;2.85;;;4.20;99.90;;;;;;4963463;27;20692;-81
2021/03/20 13:34:50;;;;;;;4.05;1.90;;;4.30;99.90;;;;;;4965027;27;20084;-83
2021/03/20 13:37:14;;;;;;;4.45;1.83;;;4.20;99.90;;;;;;4962290;27;20544;-84
2021/03/20 13:39:38;;;;;;;4.82;1.73;;;4.20;99.90;;;;;;4962724;27;20115;-85
2021/03/20 13:42:00;;;;;;;4.32;1.90;;;4.20;99.90;;;;;;4953216;27;20077;-82
2021/03/20 13:44:23;;;;;;;4.72;1.58;;;4.30;99.90;;;;;;4960464;27;20189;-83